sensor_id;sensor_type;location;lat;lon;timestamp;pressure;altitude;pressure_sealevel;temperature
40199;BMP280;25906;43.536;26.068;2023-06-26T00:02:18;98521.81;;;19.74
40199;BMP280;25906;43.536;26.068;2023-06-26T00:05:04;98526.69;;;19.76
40199;BMP280;25906;43.536;26.068;2023-06-26T00:07:49;98518.88;;;19.61
40199;BMP280;25906;43.536;26.068;2023-06-26T00:10:34;98523.03;;;19.62
40199;BMP280;25906;43.536;26.068;2023-06-26T00:13:20;98517.94;;;19.64
40199;BMP280;25906;43.536;26.068;2023-06-26T00:16:05;98519.38;;;19.60
40199;BMP280;25906;43.536;26.068;2023-06-26T00:18:50;98513.53;;;19.56
40199;BMP280;25906;43.536;26.068;2023-06-26T00:21:36;98507.44;;;19.50
40199;BMP280;25906;43.536;26.068;2023-06-26T00:24:21;98514.78;;;19.49
40199;BMP280;25906;43.536;26.068;2023-06-26T00:27:06;98505.25;;;19.42
40199;BMP280;25906;43.536;26.068;2023-06-26T00:29:52;98502.56;;;19.42
40199;BMP280;25906;43.536;26.068;2023-06-26T00:32:38;98499.16;;;19.42
40199;BMP280;25906;43.536;26.068;2023-06-26T00:35:23;98504.00;;;19.43
40199;BMP280;25906;43.536;26.068;2023-06-26T00:38:08;98499.88;;;19.42
40199;BMP280;25906;43.536;26.068;2023-06-26T00:40:53;98497.19;;;19.48
40199;BMP280;25906;43.536;26.068;2023-06-26T00:43:39;98510.63;;;19.48
40199;BMP280;25906;43.536;26.068;2023-06-26T00:46:25;98504.28;;;19.45
40199;BMP280;25906;43.536;26.068;2023-06-26T00:49:10;98503.75;;;19.47
40199;BMP280;25906;43.536;26.068;2023-06-26T00:51:56;98507.66;;;19.52
40199;BMP280;25906;43.536;26.068;2023-06-26T00:54:41;98508.91;;;19.45
40199;BMP280;25906;43.536;26.068;2023-06-26T00:57:26;98513.06;;;19.46
40199;BMP280;25906;43.536;26.068;2023-06-26T01:00:12;98508.16;;;19.44
40199;BMP280;25906;43.536;26.068;2023-06-26T01:02:58;98510.13;;;19.50
40199;BMP280;25906;43.536;26.068;2023-06-26T01:05:44;98515.00;;;19.45
40199;BMP280;25906;43.536;26.068;2023-06-26T01:08:30;98510.38;;;19.46
40199;BMP280;25906;43.536;26.068;2023-06-26T01:11:16;98513.28;;;19.48
40199;BMP280;25906;43.536;26.068;2023-06-26T01:14:01;98508.66;;;19.54
40199;BMP280;25906;43.536;26.068;2023-06-26T01:16:46;98513.28;;;19.48
40199;BMP280;25906;43.536;26.068;2023-06-26T01:19:35;98510.84;;;19.44
40199;BMP280;25906;43.536;26.068;2023-06-26T01:22:24;98504.53;;;19.42
40199;BMP280;25906;43.536;26.068;2023-06-26T01:27:58;98502.31;;;19.40
40199;BMP280;25906;43.536;26.068;2023-06-26T01:30:44;98499.38;;;19.38
40199;BMP280;25906;43.536;26.068;2023-06-26T01:33:30;98494.97;;;19.35
40199;BMP280;25906;43.536;26.068;2023-06-26T01:36:16;98497.66;;;19.35
40199;BMP280;25906;43.536;26.068;2023-06-26T01:39:01;98501.81;;;19.31
40199;BMP280;25906;43.536;26.068;2023-06-26T01:41:46;98502.56;;;19.37
40199;BMP280;25906;43.536;26.068;2023-06-26T01:44:33;98494.97;;;19.35
40199;BMP280;25906;43.536;26.068;2023-06-26T01:47:21;98496.00;;;19.32
40199;BMP280;25906;43.536;26.068;2023-06-26T01:50:09;98498.16;;;19.34
40199;BMP280;25906;43.536;26.068;2023-06-26T01:53:04;98498.41;;;19.30
40199;BMP280;25906;43.536;26.068;2023-06-26T01:55:53;98500.34;;;19.30
40199;BMP280;25906;43.536;26.068;2023-06-26T01:58:40;98501.59;;;19.23
40199;BMP280;25906;43.536;26.068;2023-06-26T02:01:28;98502.81;;;19.22
40199;BMP280;25906;43.536;26.068;2023-06-26T02:04:13;98507.69;;;19.18
40199;BMP280;25906;43.536;26.068;2023-06-26T02:06:58;98503.06;;;19.19
40199;BMP280;25906;43.536;26.068;2023-06-26T02:09:44;98506.47;;;19.14
40199;BMP280;25906;43.536;26.068;2023-06-26T02:12:29;98510.81;;;19.11
40199;BMP280;25906;43.536;26.068;2023-06-26T02:15:14;98513.75;;;19.08
40199;BMP280;25906;43.536;26.068;2023-06-26T02:18:00;98519.63;;;19.01
40199;BMP280;25906;43.536;26.068;2023-06-26T02:20:45;98513.00;;;18.96
40199;BMP280;25906;43.536;26.068;2023-06-26T02:23:30;98510.31;;;18.90
40199;BMP280;25906;43.536;26.068;2023-06-26T02:26:16;98520.09;;;18.94
40199;BMP280;25906;43.536;26.068;2023-06-26T02:29:01;98518.13;;;18.88
40199;BMP280;25906;43.536;26.068;2023-06-26T02:31:46;98517.16;;;18.86
40199;BMP280;25906;43.536;26.068;2023-06-26T02:34:31;98515.16;;;18.81
40199;BMP280;25906;43.536;26.068;2023-06-26T02:37:17;98504.44;;;18.75
40199;BMP280;25906;43.536;26.068;2023-06-26T02:40:03;98502.25;;;18.79
40199;BMP280;25906;43.536;26.068;2023-06-26T02:42:48;98503.94;;;18.71
40199;BMP280;25906;43.536;26.068;2023-06-26T02:45:33;98505.38;;;18.67
40199;BMP280;25906;43.536;26.068;2023-06-26T02:48:19;98500.03;;;18.61
40199;BMP280;25906;43.536;26.068;2023-06-26T02:51:04;98507.56;;;18.63
40199;BMP280;25906;43.536;26.068;2023-06-26T02:53:49;98493.94;;;18.61
40199;BMP280;25906;43.536;26.068;2023-06-26T02:56:35;98513.44;;;18.61
40199;BMP280;25906;43.536;26.068;2023-06-26T02:59:20;98506.84;;;18.62
40199;BMP280;25906;43.536;26.068;2023-06-26T03:02:05;98510.22;;;18.57
40199;BMP280;25906;43.536;26.068;2023-06-26T03:04:51;98510.50;;;18.59
40199;BMP280;25906;43.536;26.068;2023-06-26T03:07:37;98503.66;;;18.58
40199;BMP280;25906;43.536;26.068;2023-06-26T03:10:23;98510.22;;;18.57
40199;BMP280;25906;43.536;26.068;2023-06-26T03:13:08;98512.69;;;18.61
40199;BMP280;25906;43.536;26.068;2023-06-26T03:15:53;98514.13;;;18.56
40199;BMP280;25906;43.536;26.068;2023-06-26T03:18:38;98518.03;;;18.55
40199;BMP280;25906;43.536;26.068;2023-06-26T03:21:24;98520.75;;;18.61
40199;BMP280;25906;43.536;26.068;2023-06-26T03:24:09;98526.84;;;18.61
40199;BMP280;25906;43.536;26.068;2023-06-26T03:26:54;98527.31;;;18.65
40199;BMP280;25906;43.536;26.068;2023-06-26T03:29:40;98530.44;;;18.58
40199;BMP280;25906;43.536;26.068;2023-06-26T03:32:25;98525.59;;;18.57
40199;BMP280;25906;43.536;26.068;2023-06-26T03:35:10;98530.72;;;18.60
40199;BMP280;25906;43.536;26.068;2023-06-26T03:37:56;98529.31;;;18.70
40199;BMP280;25906;43.536;26.068;2023-06-26T03:40:42;98529.78;;;18.69
40199;BMP280;25906;43.536;26.068;2023-06-26T03:43:27;98524.44;;;18.74
40199;BMP280;25906;43.536;26.068;2023-06-26T03:46:12;98517.31;;;18.66
40199;BMP280;25906;43.536;26.068;2023-06-26T03:48:57;98520.25;;;18.68
40199;BMP280;25906;43.536;26.068;2023-06-26T03:51:43;98519.78;;;18.69
40199;BMP280;25906;43.536;26.068;2023-06-26T03:54:28;98526.09;;;18.66
40199;BMP280;25906;43.536;26.068;2023-06-26T03:57:13;98524.22;;;18.78
40199;BMP280;25906;43.536;26.068;2023-06-26T03:59:59;98523.00;;;18.90
40199;BMP280;25906;43.536;26.068;2023-06-26T04:02:44;98521.31;;;18.93
40199;BMP280;25906;43.536;26.068;2023-06-26T04:05:30;98527.66;;;19.12
40199;BMP280;25906;43.536;26.068;2023-06-26T04:08:15;98521.59;;;19.22
40199;BMP280;25906;43.536;26.068;2023-06-26T04:11:00;98523.31;;;19.42
40199;BMP280;25906;43.536;26.068;2023-06-26T04:13:46;98526.25;;;19.50
40199;BMP280;25906;43.536;26.068;2023-06-26T04:16:31;98528.19;;;19.66
40199;BMP280;25906;43.536;26.068;2023-06-26T04:19:16;98525.00;;;19.67
40199;BMP280;25906;43.536;26.068;2023-06-26T04:22:01;98519.16;;;19.63
40199;BMP280;25906;43.536;26.068;2023-06-26T04:24:47;98525.25;;;19.58
40199;BMP280;25906;43.536;26.068;2023-06-26T04:27:32;98528.41;;;19.68
40199;BMP280;25906;43.536;26.068;2023-06-26T04:30:17;98520.63;;;19.64
40199;BMP280;25906;43.536;26.068;2023-06-26T04:33:02;98517.19;;;19.47
40199;BMP280;25906;43.536;26.068;2023-06-26T04:35:48;98517.44;;;19.49
40199;BMP280;25906;43.536;26.068;2023-06-26T04:38:33;98523.56;;;19.50
40199;BMP280;25906;43.536;26.068;2023-06-26T04:41:19;98525.03;;;19.51
40199;BMP280;25906;43.536;26.068;2023-06-26T04:44:04;98520.09;;;19.60
40199;BMP280;25906;43.536;26.068;2023-06-26T04:46:49;98526.47;;;19.63
40199;BMP280;25906;43.536;26.068;2023-06-26T04:49:36;98535.50;;;19.60
40199;BMP280;25906;43.536;26.068;2023-06-26T04:52:22;98531.34;;;19.53
40199;BMP280;25906;43.536;26.068;2023-06-26T04:55:07;98530.38;;;19.56
40199;BMP280;25906;43.536;26.068;2023-06-26T04:57:52;98535.72;;;19.56
40199;BMP280;25906;43.536;26.068;2023-06-26T05:00:37;98530.38;;;19.62
40199;BMP280;25906;43.536;26.068;2023-06-26T05:03:23;98532.06;;;19.65
40199;BMP280;25906;43.536;26.068;2023-06-26T05:06:08;98535.72;;;19.67
40199;BMP280;25906;43.536;26.068;2023-06-26T05:08:53;98543.03;;;19.78
40199;BMP280;25906;43.536;26.068;2023-06-26T05:11:38;98537.66;;;19.94
40199;BMP280;25906;43.536;26.068;2023-06-26T05:14:24;98548.63;;;19.96
40199;BMP280;25906;43.536;26.068;2023-06-26T05:17:09;98550.75;;;20.20
40199;BMP280;25906;43.536;26.068;2023-06-26T05:19:54;98550.28;;;20.27
40199;BMP280;25906;43.536;26.068;2023-06-26T05:22:40;98552.97;;;20.16
40199;BMP280;25906;43.536;26.068;2023-06-26T05:25:25;98552.63;;;20.53
40199;BMP280;25906;43.536;26.068;2023-06-26T05:28:12;98555.38;;;20.36
40199;BMP280;25906;43.536;26.068;2023-06-26T05:30:57;98547.75;;;20.46
40199;BMP280;25906;43.536;26.068;2023-06-26T05:33:43;98555.06;;;20.51
40199;BMP280;25906;43.536;26.068;2023-06-26T05:36:29;98558.53;;;20.35
40199;BMP280;25906;43.536;26.068;2023-06-26T05:39:15;98554.88;;;20.32
40199;BMP280;25906;43.536;26.068;2023-06-26T05:42:01;98558.72;;;20.53
40199;BMP280;25906;43.536;26.068;2023-06-26T05:44:48;98553.34;;;20.48
40199;BMP280;25906;43.536;26.068;2023-06-26T05:47:33;98559.44;;;20.54
40199;BMP280;25906;43.536;26.068;2023-06-26T05:50:19;98564.16;;;20.37
40199;BMP280;25906;43.536;26.068;2023-06-26T05:53:05;98564.50;;;20.63
40199;BMP280;25906;43.536;26.068;2023-06-26T05:55:50;98567.75;;;20.56
40199;BMP280;25906;43.536;26.068;2023-06-26T05:58:36;98564.91;;;20.84
40199;BMP280;25906;43.536;26.068;2023-06-26T06:01:21;98554.97;;;21.08
40199;BMP280;25906;43.536;26.068;2023-06-26T06:04:06;98560.59;;;21.10
40199;BMP280;25906;43.536;26.068;2023-06-26T06:06:51;98564.09;;;21.35
40199;BMP280;25906;43.536;26.068;2023-06-26T06:09:37;98570.84;;;21.47
40199;BMP280;25906;43.536;26.068;2023-06-26T06:12:22;98568.34;;;21.55
40199;BMP280;25906;43.536;26.068;2023-06-26T06:15:08;98565.47;;;21.71
40199;BMP280;25906;43.536;26.068;2023-06-26T06:17:53;98560.34;;;21.68
40199;BMP280;25906;43.536;26.068;2023-06-26T06:20:38;98560.25;;;21.55
40199;BMP280;25906;43.536;26.068;2023-06-26T06:23:24;98554.69;;;21.96
40199;BMP280;25906;43.536;26.068;2023-06-26T06:26:09;98565.47;;;21.47
40199;BMP280;25906;43.536;26.068;2023-06-26T06:28:54;98575.28;;;21.69
40199;BMP280;25906;43.536;26.068;2023-06-26T06:31:39;98576.63;;;21.57
40199;BMP280;25906;43.536;26.068;2023-06-26T06:34:25;98570.72;;;21.58
40199;BMP280;25906;43.536;26.068;2023-06-26T06:37:10;98576.19;;;21.77
40199;BMP280;25906;43.536;26.068;2023-06-26T06:39:55;98572.50;;;22.04
40199;BMP280;25906;43.536;26.068;2023-06-26T06:42:41;98576.84;;;21.83
40199;BMP280;25906;43.536;26.068;2023-06-26T06:45:26;98577.09;;;21.61
40199;BMP280;25906;43.536;26.068;2023-06-26T06:48:11;98582.66;;;21.93
40199;BMP280;25906;43.536;26.068;2023-06-26T06:50:57;98575.06;;;21.91
40199;BMP280;25906;43.536;26.068;2023-06-26T06:53:42;98580.38;;;22.02
40199;BMP280;25906;43.536;26.068;2023-06-26T06:56:27;98565.97;;;22.18
40199;BMP280;25906;43.536;26.068;2023-06-26T06:59:13;98566.84;;;22.26
40199;BMP280;25906;43.536;26.068;2023-06-26T07:01:58;98571.97;;;22.06
40199;BMP280;25906;43.536;26.068;2023-06-26T07:04:43;98573.19;;;21.86
40199;BMP280;25906;43.536;26.068;2023-06-26T07:07:29;98577.50;;;21.95
40199;BMP280;25906;43.536;26.068;2023-06-26T07:10:16;98576.75;;;21.70
40199;BMP280;25906;43.536;26.068;2023-06-26T07:13:01;98581.56;;;21.53
40199;BMP280;25906;43.536;26.068;2023-06-26T07:15:47;98579.56;;;21.83
40199;BMP280;25906;43.536;26.068;2023-06-26T07:18:32;98575.34;;;22.12
40199;BMP280;25906;43.536;26.068;2023-06-26T07:21:18;98586.41;;;22.08
40199;BMP280;25906;43.536;26.068;2023-06-26T07:24:03;98583.56;;;22.43
40199;BMP280;25906;43.536;26.068;2023-06-26T07:26:48;98585.59;;;22.75
40199;BMP280;25906;43.536;26.068;2023-06-26T07:29:34;98593.84;;;22.82
40199;BMP280;25906;43.536;26.068;2023-06-26T07:32:19;98600.03;;;22.77
40199;BMP280;25906;43.536;26.068;2023-06-26T07:35:04;98596.78;;;23.16
40199;BMP280;25906;43.536;26.068;2023-06-26T07:37:50;98591.38;;;23.48
40199;BMP280;25906;43.536;26.068;2023-06-26T07:40:35;98596.06;;;23.73
40199;BMP280;25906;43.536;26.068;2023-06-26T07:43:20;98588.63;;;23.35
40199;BMP280;25906;43.536;26.068;2023-06-26T07:46:05;98593.69;;;22.93
40199;BMP280;25906;43.536;26.068;2023-06-26T07:48:51;98603.81;;;23.06
40199;BMP280;25906;43.536;26.068;2023-06-26T07:51:36;98596.50;;;23.77
40199;BMP280;25906;43.536;26.068;2023-06-26T07:54:21;98595.97;;;24.05
40199;BMP280;25906;43.536;26.068;2023-06-26T07:57:07;98594.41;;;23.70
40199;BMP280;25906;43.536;26.068;2023-06-26T07:59:52;98594.09;;;23.16
40199;BMP280;25906;43.536;26.068;2023-06-26T08:02:37;98591.56;;;23.37
40199;BMP280;25906;43.536;26.068;2023-06-26T08:05:22;98593.63;;;23.44
40199;BMP280;25906;43.536;26.068;2023-06-26T08:08:08;98597.66;;;22.92
40199;BMP280;25906;43.536;26.068;2023-06-26T08:10:53;98598.66;;;23.08
40199;BMP280;25906;43.536;26.068;2023-06-26T08:13:38;98603.06;;;23.95
40199;BMP280;25906;43.536;26.068;2023-06-26T08:16:24;98599.66;;;24.55
40199;BMP280;25906;43.536;26.068;2023-06-26T08:19:10;98591.31;;;24.66
40199;BMP280;25906;43.536;26.068;2023-06-26T08:21:55;98586.22;;;24.49
40199;BMP280;25906;43.536;26.068;2023-06-26T08:24:40;98598.47;;;24.03
40199;BMP280;25906;43.536;26.068;2023-06-26T08:27:26;98591.81;;;24.17
40199;BMP280;25906;43.536;26.068;2023-06-26T08:30:11;98583.97;;;24.94
40199;BMP280;25906;43.536;26.068;2023-06-26T08:32:56;98583.38;;;24.88
40199;BMP280;25906;43.536;26.068;2023-06-26T08:35:42;98585.59;;;24.77
40199;BMP280;25906;43.536;26.068;2023-06-26T08:38:27;98596.41;;;24.56
40199;BMP280;25906;43.536;26.068;2023-06-26T08:41:13;98593.34;;;24.73
40199;BMP280;25906;43.536;26.068;2023-06-26T08:43:58;98581.66;;;24.44
40199;BMP280;25906;43.536;26.068;2023-06-26T08:46:44;98585.03;;;24.91
40199;BMP280;25906;43.536;26.068;2023-06-26T08:49:31;98584.13;;;25.09
40199;BMP280;25906;43.536;26.068;2023-06-26T08:52:24;98581.06;;;24.25
40199;BMP280;25906;43.536;26.068;2023-06-26T08:55:10;98579.50;;;24.63
40199;BMP280;25906;43.536;26.068;2023-06-26T08:57:57;98572.91;;;25.05
40199;BMP280;25906;43.536;26.068;2023-06-26T09:00:42;98574.78;;;25.18
40199;BMP280;25906;43.536;26.068;2023-06-26T09:03:31;98574.84;;;25.46
40199;BMP280;25906;43.536;26.068;2023-06-26T09:06:16;98566.03;;;25.53
40199;BMP280;25906;43.536;26.068;2023-06-26T09:09:03;98572.81;;;25.19
40199;BMP280;25906;43.536;26.068;2023-06-26T09:11:49;98572.63;;;25.45
40199;BMP280;25906;43.536;26.068;2023-06-26T09:14:34;98574.44;;;25.42
40199;BMP280;25906;43.536;26.068;2023-06-26T09:17:19;98565.25;;;25.81
40199;BMP280;25906;43.536;26.068;2023-06-26T09:20:09;98570.78;;;25.68
40199;BMP280;25906;43.536;26.068;2023-06-26T09:22:55;98569.25;;;25.03
40199;BMP280;25906;43.536;26.068;2023-06-26T09:25:41;98570.75;;;24.91
40199;BMP280;25906;43.536;26.068;2023-06-26T09:28:27;98575.72;;;24.59
40199;BMP280;25906;43.536;26.068;2023-06-26T09:31:12;98569.84;;;24.34
40199;BMP280;25906;43.536;26.068;2023-06-26T09:33:58;98578.19;;;24.23
40199;BMP280;25906;43.536;26.068;2023-06-26T09:36:44;98578.16;;;24.90
40199;BMP280;25906;43.536;26.068;2023-06-26T09:39:46;98578.19;;;25.39
40199;BMP280;25906;43.536;26.068;2023-06-26T09:42:31;98579.97;;;25.57
40199;BMP280;25906;43.536;26.068;2023-06-26T09:45:19;98565.19;;;25.66
40199;BMP280;25906;43.536;26.068;2023-06-26T09:48:06;98576.34;;;25.62
40199;BMP280;25906;43.536;26.068;2023-06-26T09:50:53;98583.63;;;25.39
40199;BMP280;25906;43.536;26.068;2023-06-26T09:53:38;98579.13;;;25.00
40199;BMP280;25906;43.536;26.068;2023-06-26T09:56:24;98578.38;;;24.92
40199;BMP280;25906;43.536;26.068;2023-06-26T09:59:09;98579.69;;;24.99
40199;BMP280;25906;43.536;26.068;2023-06-26T10:01:58;98570.97;;;25.13
40199;BMP280;25906;43.536;26.068;2023-06-26T10:04:43;98566.28;;;25.70
40199;BMP280;25906;43.536;26.068;2023-06-26T10:07:29;98566.03;;;25.89
40199;BMP280;25906;43.536;26.068;2023-06-26T10:10:15;98561.97;;;25.67
40199;BMP280;25906;43.536;26.068;2023-06-26T10:13:03;98560.81;;;25.99
40199;BMP280;25906;43.536;26.068;2023-06-26T10:15:50;98560.00;;;25.75
40199;BMP280;25906;43.536;26.068;2023-06-26T10:18:36;98556.63;;;25.90
40199;BMP280;25906;43.536;26.068;2023-06-26T10:21:24;98558.56;;;25.82
40199;BMP280;25906;43.536;26.068;2023-06-26T10:24:10;98559.88;;;25.53
40199;BMP280;25906;43.536;26.068;2023-06-26T10:26:59;98560.91;;;25.22
40199;BMP280;25906;43.536;26.068;2023-06-26T10:29:45;98558.22;;;25.01
40199;BMP280;25906;43.536;26.068;2023-06-26T10:32:32;98553.38;;;25.28
40199;BMP280;25906;43.536;26.068;2023-06-26T10:35:17;98547.53;;;25.44
40199;BMP280;25906;43.536;26.068;2023-06-26T10:38:03;98545.63;;;25.32
40199;BMP280;25906;43.536;26.068;2023-06-26T10:40:51;98549.31;;;25.70
40199;BMP280;25906;43.536;26.068;2023-06-26T10:43:37;98543.63;;;25.53
40199;BMP280;25906;43.536;26.068;2023-06-26T10:46:23;98550.50;;;25.54
40199;BMP280;25906;43.536;26.068;2023-06-26T10:49:08;98543.41;;;25.51
40199;BMP280;25906;43.536;26.068;2023-06-26T10:52:00;98542.25;;;24.90
40199;BMP280;25906;43.536;26.068;2023-06-26T10:54:45;98542.03;;;25.08
40199;BMP280;25906;43.536;26.068;2023-06-26T10:57:31;98547.78;;;25.05
40199;BMP280;25906;43.536;26.068;2023-06-26T11:00:18;98560.59;;;25.04
40199;BMP280;25906;43.536;26.068;2023-06-26T11:03:21;98548.44;;;24.77
40199;BMP280;25906;43.536;26.068;2023-06-26T11:06:14;98550.56;;;24.71
40199;BMP280;25906;43.536;26.068;2023-06-26T11:14:35;98559.69;;;24.01
40199;BMP280;25906;43.536;26.068;2023-06-26T11:17:20;98548.78;;;23.80
40199;BMP280;25906;43.536;26.068;2023-06-26T11:20:10;98549.84;;;23.77
40199;BMP280;25906;43.536;26.068;2023-06-26T11:22:55;98546.78;;;24.07
40199;BMP280;25906;43.536;26.068;2023-06-26T11:25:41;98545.03;;;24.09
40199;BMP280;25906;43.536;26.068;2023-06-26T11:28:28;98550.50;;;24.17
40199;BMP280;25906;43.536;26.068;2023-06-26T11:34:12;98539.00;;;24.37
40199;BMP280;25906;43.536;26.068;2023-06-26T11:36:57;98535.56;;;24.70
40199;BMP280;25906;43.536;26.068;2023-06-26T11:39:43;98536.00;;;24.61
40199;BMP280;25906;43.536;26.068;2023-06-26T11:42:28;98537.94;;;24.94
40199;BMP280;25906;43.536;26.068;2023-06-26T11:45:14;98535.16;;;25.07
40199;BMP280;25906;43.536;26.068;2023-06-26T11:47:59;98540.25;;;25.11
40199;BMP280;25906;43.536;26.068;2023-06-26T11:50:45;98537.50;;;25.32
40199;BMP280;25906;43.536;26.068;2023-06-26T11:53:30;98535.38;;;25.38
40199;BMP280;25906;43.536;26.068;2023-06-26T11:56:16;98538.28;;;25.40
40199;BMP280;25906;43.536;26.068;2023-06-26T11:59:02;98538.81;;;25.66
40199;BMP280;25906;43.536;26.068;2023-06-26T12:01:49;98532.91;;;25.83
40199;BMP280;25906;43.536;26.068;2023-06-26T12:04:35;98534.84;;;25.75
40199;BMP280;25906;43.536;26.068;2023-06-26T12:07:20;98537.63;;;25.82
40199;BMP280;25906;43.536;26.068;2023-06-26T12:10:08;98539.22;;;25.78
40199;BMP280;25906;43.536;26.068;2023-06-26T12:12:54;98538.34;;;25.83
40199;BMP280;25906;43.536;26.068;2023-06-26T12:15:43;98527.53;;;25.98
40199;BMP280;25906;43.536;26.068;2023-06-26T12:18:35;98534.25;;;25.97
40199;BMP280;25906;43.536;26.068;2023-06-26T12:24:22;98537.44;;;25.88
40199;BMP280;25906;43.536;26.068;2023-06-26T12:27:08;98531.19;;;26.08
40199;BMP280;25906;43.536;26.068;2023-06-26T12:29:54;98536.75;;;25.95
40199;BMP280;25906;43.536;26.068;2023-06-26T12:32:39;98531.72;;;25.63
40199;BMP280;25906;43.536;26.068;2023-06-26T12:35:25;98528.78;;;25.26
40199;BMP280;25906;43.536;26.068;2023-06-26T12:38:10;98531.69;;;25.28
40199;BMP280;25906;43.536;26.068;2023-06-26T12:41:00;98528.31;;;25.35
40199;BMP280;25906;43.536;26.068;2023-06-26T12:43:45;98529.56;;;25.34
40199;BMP280;25906;43.536;26.068;2023-06-26T12:46:34;98530.22;;;25.55
40199;BMP280;25906;43.536;26.068;2023-06-26T12:49:20;98532.97;;;25.62
40199;BMP280;25906;43.536;26.068;2023-06-26T12:52:07;98529.94;;;25.66
40199;BMP280;25906;43.536;26.068;2023-06-26T12:54:53;98532.56;;;25.51
40199;BMP280;25906;43.536;26.068;2023-06-26T12:57:38;98533.53;;;25.33
40199;BMP280;25906;43.536;26.068;2023-06-26T13:00:24;98530.28;;;25.34
40199;BMP280;25906;43.536;26.068;2023-06-26T13:03:10;98521.72;;;25.23
40199;BMP280;25906;43.536;26.068;2023-06-26T13:05:55;98530.78;;;25.25
40199;BMP280;25906;43.536;26.068;2023-06-26T13:08:41;98524.00;;;25.11
40199;BMP280;25906;43.536;26.068;2023-06-26T13:11:26;98531.84;;;25.22
40199;BMP280;25906;43.536;26.068;2023-06-26T13:14:11;98531.97;;;25.17
40199;BMP280;25906;43.536;26.068;2023-06-26T13:16:57;98530.53;;;25.15
40199;BMP280;25906;43.536;26.068;2023-06-26T13:19:42;98536.59;;;25.08
40199;BMP280;25906;43.536;26.068;2023-06-26T13:22:28;98536.13;;;25.17
40199;BMP280;25906;43.536;26.068;2023-06-26T13:25:13;98540.31;;;25.19
40199;BMP280;25906;43.536;26.068;2023-06-26T13:27:59;98556.56;;;24.98
40199;BMP280;25906;43.536;26.068;2023-06-26T13:30:44;98552.72;;;25.14
40199;BMP280;25906;43.536;26.068;2023-06-26T13:33:30;98555.56;;;25.29
40199;BMP280;25906;43.536;26.068;2023-06-26T13:36:15;98563.88;;;25.10
40199;BMP280;25906;43.536;26.068;2023-06-26T13:39:01;98562.91;;;25.21
40199;BMP280;25906;43.536;26.068;2023-06-26T13:41:46;98549.41;;;25.29
40199;BMP280;25906;43.536;26.068;2023-06-26T13:44:31;98559.22;;;25.39
40199;BMP280;25906;43.536;26.068;2023-06-26T13:47:17;98558.47;;;25.59
40199;BMP280;25906;43.536;26.068;2023-06-26T13:50:02;98556.38;;;25.45
40199;BMP280;25906;43.536;26.068;2023-06-26T13:52:47;98552.81;;;25.50
40199;BMP280;25906;43.536;26.068;2023-06-26T13:55:33;98555.34;;;25.55
40199;BMP280;25906;43.536;26.068;2023-06-26T13:58:19;98552.47;;;25.53
40199;BMP280;25906;43.536;26.068;2023-06-26T14:01:09;98547.94;;;25.56
40199;BMP280;25906;43.536;26.068;2023-06-26T14:03:54;98552.81;;;25.50
40199;BMP280;25906;43.536;26.068;2023-06-26T14:06:40;98546.69;;;25.29
40199;BMP280;25906;43.536;26.068;2023-06-26T14:09:25;98546.50;;;25.27
40199;BMP280;25906;43.536;26.068;2023-06-26T14:12:10;98544.78;;;25.37
40199;BMP280;25906;43.536;26.068;2023-06-26T14:14:55;98551.97;;;25.34
40199;BMP280;25906;43.536;26.068;2023-06-26T14:17:41;98546.94;;;25.38
40199;BMP280;25906;43.536;26.068;2023-06-26T14:20:26;98544.28;;;25.46
40199;BMP280;25906;43.536;26.068;2023-06-26T14:23:12;98538.34;;;25.55
40199;BMP280;25906;43.536;26.068;2023-06-26T14:25:58;98542.59;;;25.71
40199;BMP280;25906;43.536;26.068;2023-06-26T14:28:43;98531.41;;;25.74
40199;BMP280;25906;43.536;26.068;2023-06-26T14:31:30;98536.06;;;26.02
40199;BMP280;25906;43.536;26.068;2023-06-26T14:34:15;98540.56;;;25.92
40199;BMP280;25906;43.536;26.068;2023-06-26T14:37:01;98533.84;;;25.86
40199;BMP280;25906;43.536;26.068;2023-06-26T14:39:46;98530.56;;;25.87
40199;BMP280;25906;43.536;26.068;2023-06-26T14:42:31;98527.66;;;25.77
40199;BMP280;25906;43.536;26.068;2023-06-26T14:45:16;98528.59;;;25.95
40199;BMP280;25906;43.536;26.068;2023-06-26T14:48:02;98534.16;;;25.82
40199;BMP280;25906;43.536;26.068;2023-06-26T14:50:47;98539.88;;;25.71
40199;BMP280;25906;43.536;26.068;2023-06-26T14:53:32;98528.91;;;25.76
40199;BMP280;25906;43.536;26.068;2023-06-26T14:56:17;98533.91;;;25.65
40199;BMP280;25906;43.536;26.068;2023-06-26T14:59:03;98536.28;;;25.68
40199;BMP280;25906;43.536;26.068;2023-06-26T15:01:48;98550.88;;;25.94
40199;BMP280;25906;43.536;26.068;2023-06-26T15:04:33;98531.53;;;25.97
40199;BMP280;25906;43.536;26.068;2023-06-26T15:07:18;98545.50;;;26.09
40199;BMP280;25906;43.536;26.068;2023-06-26T15:10:04;98541.88;;;26.06
40199;BMP280;25906;43.536;26.068;2023-06-26T15:12:51;98544.38;;;26.04
40199;BMP280;25906;43.536;26.068;2023-06-26T15:15:36;98548.19;;;26.01
40199;BMP280;25906;43.536;26.068;2023-06-26T15:18:22;98551.94;;;25.98
40199;BMP280;25906;43.536;26.068;2023-06-26T15:21:07;98552.53;;;25.68
40199;BMP280;25906;43.536;26.068;2023-06-26T15:23:52;98553.09;;;25.67
40199;BMP280;25906;43.536;26.068;2023-06-26T15:26:38;98550.63;;;24.99
40199;BMP280;25906;43.536;26.068;2023-06-26T15:29:23;98548.97;;;24.76
40199;BMP280;25906;43.536;26.068;2023-06-26T15:32:08;98546.25;;;24.55
40199;BMP280;25906;43.536;26.068;2023-06-26T15:34:53;98534.25;;;24.30
40199;BMP280;25906;43.536;26.068;2023-06-26T15:37:39;98545.19;;;24.24
40199;BMP280;25906;43.536;26.068;2023-06-26T15:40:24;98546.22;;;24.21
40199;BMP280;25906;43.536;26.068;2023-06-26T15:43:09;98528.31;;;24.31
40199;BMP280;25906;43.536;26.068;2023-06-26T15:45:55;98530.50;;;24.33
40199;BMP280;25906;43.536;26.068;2023-06-26T15:48:40;98522.66;;;24.42
40199;BMP280;25906;43.536;26.068;2023-06-26T15:51:26;98529.06;;;24.53
40199;BMP280;25906;43.536;26.068;2023-06-26T15:54:11;98546.56;;;24.52
40199;BMP280;25906;43.536;26.068;2023-06-26T15:56:56;98533.09;;;24.59